Time;durP1;ratioP1;P1;durP2;ratioP2;P2;SDS_P1;SDS_P2;PMS_P1;PMS_P2;Temp;Humidity;BMP_temperature;BMP_pressure;BME280_temperature;BME280_humidity;BME280_pressure;Samples;Min_cycle;Max_cycle;Signal;HPM_P1;HPM_P2
2023/01/15 00:02:23;;;;;;;;;0.33;0.33;;;;;12.49;100.00;100293.16;5094313;27;45480;-79
2023/01/15 00:04:52;;;;;;;;;2.00;0.00;;;;;12.70;100.00;100341.69;5078102;27;45449;-79
2023/01/15 00:07:17;;;;;;;;;2.00;0.67;;;;;12.68;100.00;100332.81;5081862;27;45506;-78
2023/01/15 00:09:42;;;;;;;;;0.00;0.00;;;;;12.48;100.00;100326.88;5101327;27;45452;-78
2023/01/15 00:12:08;;;;;;;;;1.00;1.00;;;;;12.70;100.00;100323.47;5098104;27;45370;-79
2023/01/15 00:14:33;;;;;;;;;0.67;0.67;;;;;12.59;100.00;100306.59;5096464;27;45364;-79
2023/01/15 00:16:59;;;;;;;;;1.00;1.00;;;;;12.63;100.00;100313.44;5067172;27;45665;-79
2023/01/15 00:19:24;;;;;;;;;1.00;1.00;;;;;12.77;100.00;100334.53;5102441;27;45527;-79
2023/01/15 00:21:50;;;;;;;;;3.00;1.00;;;;;12.46;100.00;100323.47;5097416;27;46535;-78
2023/01/15 00:29:43;;;;;;;;;1.00;1.00;;;;;12.25;100.00;100321.25;5099659;27;45222;-78
2023/01/15 00:32:08;;;;;;;;;0.00;0.00;;;;;12.23;100.00;100317.84;5100810;27;45322;-79
2023/01/15 00:34:34;;;;;;;;;0.00;0.00;;;;;12.48;100.00;100322.28;5099833;27;45704;-79
2023/01/15 00:37:01;;;;;;;;;0.00;0.00;;;;;12.58;100.00;100337.59;5095119;27;45425;-79
2023/01/15 00:39:26;;;;;;;;;0.67;0.67;;;;;12.20;100.00;100296.38;5101865;27;45267;-80
2023/01/15 00:41:53;;;;;;;;;1.00;1.00;;;;;12.36;100.00;100328.22;5080206;27;47857;-78
2023/01/15 00:44:19;;;;;;;;;2.00;2.00;;;;;12.44;100.00;100331.81;5075919;27;45412;-79
2023/01/15 00:46:44;;;;;;;;;0.67;0.00;;;;;12.39;100.00;100306.09;5082324;27;45546;-79
2023/01/15 00:49:10;;;;;;;;;0.00;0.00;;;;;12.57;100.00;100323.13;5101205;27;45538;-79
2023/01/15 00:51:36;;;;;;;;;0.33;0.33;;;;;12.57;100.00;100331.28;5085695;27;46885;-79
2023/01/15 00:54:02;;;;;;;;;0.67;0.00;;;;;12.65;100.00;100330.44;5099568;27;45485;-79
2023/01/15 00:56:27;;;;;;;;;1.00;1.00;;;;;12.50;100.00;100322.09;5102661;27;47590;-80
2023/01/15 00:58:53;;;;;;;;;2.00;1.00;;;;;12.18;100.00;100292.16;5098834;27;45603;-80
2023/01/15 01:01:18;;;;;;;;;0.00;0.00;;;;;12.25;100.00;100313.09;5082361;27;47772;-80
2023/01/15 01:03:47;;;;;;;;;0.67;0.00;;;;;12.10;100.00;100339.28;5082775;27;45483;-80
2023/01/15 01:06:15;;;;;;;;;1.00;0.33;;;;;12.34;100.00;100327.56;5087429;27;45769;-80
2023/01/15 01:08:41;;;;;;;;;2.00;0.00;;;;;12.20;100.00;100323.63;5101979;27;45265;-81
2023/01/15 01:11:09;;;;;;;;;0.00;0.00;;;;;12.16;100.00;100319.53;5099131;27;45406;-81
2023/01/15 01:13:36;;;;;;;;;0.00;0.00;;;;;12.29;100.00;100294.53;5101033;27;45332;-81
2023/01/15 01:16:02;;;;;;;;;0.00;0.00;;;;;12.46;100.00;100307.97;5098996;27;45424;-81
2023/01/15 01:18:28;;;;;;;;;0.00;0.00;;;;;12.58;100.00;100319.38;5083201;27;45314;-79
2023/01/15 01:20:54;;;;;;;;;0.00;0.00;;;;;12.43;100.00;100316.47;5099214;27;45540;-81
2023/01/15 01:23:22;;;;;;;;;0.00;0.00;;;;;12.54;100.00;100333.53;5080746;27;45434;-81
2023/01/15 01:25:47;;;;;;;;;3.33;3.33;;;;;12.55;100.00;100333.34;5085922;27;45349;-80
2023/01/15 01:28:12;;;;;;;;;2.00;0.00;;;;;12.61;100.00;100331.81;5075202;27;45575;-79
2023/01/15 01:30:38;;;;;;;;;0.00;0.00;;;;;12.43;100.00;100304.72;5097885;27;46298;-80
2023/01/15 01:33:03;;;;;;;;;1.00;1.00;;;;;12.53;100.00;100318.19;5078398;27;45483;-81
2023/01/15 01:35:29;;;;;;;;;3.00;0.33;;;;;12.31;100.00;100315.13;5085813;27;45262;-81
2023/01/15 01:37:54;;;;;;;;;0.00;0.00;;;;;12.39;100.00;100345.09;5098443;27;45209;-81
2023/01/15 01:40:19;;;;;;;;;1.67;1.67;;;;;12.19;100.00;100340.16;5098818;27;45535;-81
2023/01/15 01:42:45;;;;;;;;;0.00;0.00;;;;;12.19;100.00;100354.63;5102270;27;45407;-82
2023/01/15 01:45:33;;;;;;;;;1.00;1.00;;;;;12.33;100.00;100350.38;5083556;28;46329;-80
2023/01/15 01:48:03;;;;;;;;;3.00;0.00;;;;;12.18;100.00;100331.13;5084007;27;45529;-80
2023/01/15 01:50:30;;;;;;;;;1.00;1.00;;;;;12.07;100.00;100331.44;5080590;27;47261;-81
2023/01/15 01:53:02;;;;;;;;;0.00;0.00;;;;;12.16;100.00;100333.16;5095665;27;46012;-81
2023/01/15 01:55:30;;;;;;;;;0.33;0.00;;;;;12.21;100.00;100336.22;5098145;27;45556;-80
2023/01/15 01:57:59;;;;;;;;;0.33;0.00;;;;;12.39;100.00;100344.25;5103680;27;45345;-80
2023/01/15 02:00:25;;;;;;;;;0.00;0.00;;;;;12.39;100.00;100353.28;5095793;27;45484;-81
2023/01/15 02:02:51;;;;;;;;;2.00;0.00;;;;;12.26;100.00;100358.38;5099169;27;45315;-81
2023/01/15 02:05:36;;;;;;;;;2.00;0.00;;;;;12.35;100.00;100337.41;5092566;27;45378;-80
2023/01/15 02:08:02;;;;;;;;;0.00;0.00;;;;;12.19;100.00;100343.75;5097047;27;45722;-80
2023/01/15 02:10:28;;;;;;;;;0.67;0.67;;;;;12.24;100.00;100344.06;5091055;27;45443;-80
2023/01/15 02:12:57;;;;;;;;;0.67;0.67;;;;;12.26;100.00;100350.22;5077965;27;45830;-81
2023/01/15 02:15:32;;;;;;;;;2.00;0.00;;;;;12.22;100.00;100365.16;5086790;27;45392;-80
2023/01/15 02:18:07;;;;;;;;;0.00;0.00;;;;;11.91;100.00;100366.81;5076004;27;45359;-80
2023/01/15 02:20:44;;;;;;;;;1.67;0.00;;;;;11.88;100.00;100372.59;5086352;27;48192;-81
2023/01/15 02:23:28;;;;;;;;;2.00;1.00;;;;;11.82;100.00;100374.13;5093284;27;45411;-80
2023/01/15 02:26:25;;;;;;;;;0.00;0.00;;;;;11.78;100.00;100358.25;5079411;28;45398;-80
2023/01/15 02:28:54;;;;;;;;;1.00;0.67;;;;;11.77;100.00;100371.03;5078717;28;45797;-80
2023/01/15 02:31:37;;;;;;;;;0.00;0.00;;;;;11.96;100.00;100372.63;5076239;27;47525;-80
2023/01/15 02:34:14;;;;;;;;;0.00;0.00;;;;;11.92;100.00;100395.72;5071297;27;45233;-80
2023/01/15 02:36:45;;;;;;;;;0.00;0.00;;;;;11.89;100.00;100379.75;5081912;27;45412;-80
2023/01/15 02:39:14;;;;;;;;;0.00;0.00;;;;;11.74;100.00;100365.03;5081588;27;45449;-80
2023/01/15 02:41:47;;;;;;;;;2.33;0.00;;;;;11.93;100.00;100386.56;5073797;28;47354;-80
2023/01/15 02:44:16;;;;;;;;;0.00;0.00;;;;;11.54;100.00;100419.69;5081232;27;45447;-79
2023/01/15 02:46:43;;;;;;;;;0.33;0.33;;;;;11.62;100.00;100389.81;5079082;28;45469;-79
2023/01/15 02:49:13;;;;;;;;;1.00;0.00;;;;;11.79;100.00;100400.81;5077992;27;45503;-79
2023/01/15 02:51:46;;;;;;;;;2.00;0.00;;;;;11.71;100.00;100410.59;5079896;28;46601;-79
2023/01/15 02:54:14;;;;;;;;;3.00;1.00;;;;;11.40;100.00;100419.44;5078795;27;45482;-80
2023/01/15 02:56:44;;;;;;;;;1.33;0.00;;;;;11.62;100.00;100405.28;5080660;27;45282;-79
2023/01/15 02:59:14;;;;;;;;;3.00;0.00;;;;;11.52;100.00;100418.19;5071596;28;45400;-79
2023/01/15 03:01:44;;;;;;;;;1.00;0.00;;;;;11.29;100.00;100413.28;5079779;28;46822;-79
2023/01/15 03:04:16;;;;;;;;;1.33;0.00;;;;;11.36;100.00;100418.94;5077059;27;45356;-80
2023/01/15 03:06:45;;;;;;;;;0.67;0.00;;;;;11.55;100.00;100454.06;5076732;28;45344;-80
2023/01/15 03:09:13;;;;;;;;;0.00;0.00;;;;;11.61;100.00;100448.00;5071255;28;45369;-79
2023/01/15 03:11:46;;;;;;;;;0.67;0.00;;;;;11.59;100.00;100441.84;5075198;28;47649;-80
2023/01/15 03:14:20;;;;;;;;;0.00;0.00;;;;;11.19;100.00;100436.16;5079401;27;45334;-79
2023/01/15 03:16:53;;;;;;;;;1.00;1.00;;;;;11.27;100.00;100444.38;5074839;28;45459;-80
2023/01/15 03:19:42;;;;;;;;;0.00;0.00;;;;;11.14;100.00;100430.34;5094835;27;45471;-80
2023/01/15 03:22:14;;;;;;;;;0.00;0.00;;;;;11.35;100.00;100440.84;5080713;28;47330;-79
2023/01/15 03:24:48;;;;;;;;;0.00;0.00;;;;;11.33;100.00;100439.16;5071215;27;45517;-79
2023/01/15 03:27:14;;;;;;;;;1.00;0.00;;;;;11.51;100.00;100441.81;5075858;28;45545;-79
2023/01/15 03:29:46;;;;;;;;;0.00;0.00;;;;;11.46;100.00;100451.47;5070161;28;45341;-80
2023/01/15 03:32:12;;;;;;;;;0.00;0.00;;;;;11.62;100.00;100454.25;5077616;28;46998;-80
2023/01/15 03:34:47;;;;;;;;;0.00;0.00;;;;;11.70;100.00;100436.13;5068894;28;45268;-80
2023/01/15 03:37:13;;;;;;;;;0.67;0.00;;;;;11.21;100.00;100451.31;5079870;28;45373;-81
2023/01/15 03:39:40;;;;;;;;;0.00;0.00;;;;;10.70;100.00;100424.06;5082847;28;45550;-81
2023/01/15 03:42:23;;;;;;;;;0.00;0.00;;;;;11.32;100.00;100452.94;5081523;28;45816;-79
2023/01/15 03:45:01;;;;;;;;;3.00;0.00;;;;;11.28;100.00;100437.94;5087338;27;45826;-81
2023/01/15 03:47:47;;;;;;;;;0.00;0.00;;;;;11.33;100.00;100427.41;5078298;28;45425;-80
2023/01/15 03:50:27;;;;;;;;;0.00;0.00;;;;;10.97;100.00;100402.19;5081546;27;45483;-79
2023/01/15 03:53:02;;;;;;;;;0.00;0.00;;;;;11.14;100.00;100414.03;5079083;28;46347;-79
2023/01/15 03:55:42;;;;;;;;;0.00;0.00;;;;;11.32;100.00;100433.88;5071023;27;45306;-80
2023/01/15 03:58:16;;;;;;;;;0.00;0.00;;;;;11.19;100.00;100430.72;5077111;28;45394;-80
2023/01/15 04:01:06;;;;;;;;;0.00;0.00;;;;;11.39;100.00;100431.38;5071070;27;45471;-80
2023/01/15 04:03:33;;;;;;;;;0.00;0.00;;;;;11.41;100.00;100434.75;5073000;28;45384;-79
2023/01/15 04:06:01;;;;;;;;;2.33;0.33;;;;;11.23;100.00;100446.56;5071498;28;45392;-81
2023/01/15 04:08:31;;;;;;;;;1.00;1.00;;;;;11.48;100.00;100430.38;5079346;28;45425;-80
2023/01/15 04:10:58;;;;;;;;;0.00;0.00;;;;;11.56;100.00;100423.13;5072212;28;45211;-80
2023/01/15 04:13:25;;;;;;;;;0.00;0.00;;;;;11.47;100.00;100417.81;5071446;27;45479;-80
2023/01/15 04:15:51;;;;;;;;;2.00;0.67;;;;;11.59;100.00;100390.16;5069708;28;45354;-79
2023/01/15 04:18:16;;;;;;;;;3.00;0.00;;;;;11.49;100.00;100408.47;5079364;28;45317;-79
2023/01/15 04:20:42;;;;;;;;;0.00;0.00;;;;;11.21;100.00;100379.75;5073531;28;45662;-83
2023/01/15 04:23:08;;;;;;;;;0.00;0.00;;;;;11.13;100.00;100396.03;5079366;28;47575;-82
2023/01/15 04:25:33;;;;;;;;;0.00;0.00;;;;;11.04;100.00;100413.28;5080516;28;45281;-79
2023/01/15 04:27:58;;;;;;;;;0.00;0.00;;;;;11.46;100.00;100397.94;5077037;27;45397;-79
2023/01/15 04:30:24;;;;;;;;;0.00;0.00;;;;;11.48;100.00;100397.72;5075023;28;45259;-78
2023/01/15 04:32:51;;;;;;;;;1.00;0.00;;;;;11.28;100.00;100403.44;5076585;27;45333;-79
2023/01/15 04:35:17;;;;;;;;;1.00;0.00;;;;;11.48;100.00;100412.19;5075074;28;45330;-78
2023/01/15 04:37:42;;;;;;;;;0.00;0.00;;;;;11.42;100.00;100422.88;5081208;28;45443;-79
2023/01/15 04:40:08;;;;;;;;;0.33;0.00;;;;;11.17;100.00;100427.34;5074316;27;45425;-79
2023/01/15 04:45:18;;;;;;;;;1.67;0.00;;;;;11.03;100.00;100449.66;5073298;28;45471;-79
2023/01/15 04:47:43;;;;;;;;;0.00;0.00;;;;;10.88;100.00;100438.50;5079581;28;45317;-79
2023/01/15 04:50:10;;;;;;;;;0.00;0.00;;;;;11.05;100.00;100440.31;5081315;27;45476;-80
2023/01/15 04:52:36;;;;;;;;;1.00;0.00;;;;;10.92;100.00;100446.19;5077641;27;45544;-79
2023/01/15 04:55:02;;;;;;;;;1.00;1.00;;;;;10.68;100.00;100448.69;5072748;27;45416;-79
2023/01/15 04:57:27;;;;;;;;;0.00;0.00;;;;;10.88;100.00;100433.91;5074980;27;45447;-78
2023/01/15 04:59:53;;;;;;;;;1.00;0.00;;;;;11.19;100.00;100447.88;5080639;27;45371;-78
2023/01/15 05:02:18;;;;;;;;;0.00;0.00;;;;;10.96;100.00;100454.84;5078316;28;47301;-79
2023/01/15 05:04:43;;;;;;;;;0.00;0.00;;;;;10.89;100.00;100437.47;5089558;27;45670;-78
2023/01/15 05:07:09;;;;;;;;;0.00;0.00;;;;;10.50;100.00;100456.00;5075710;28;45544;-78
2023/01/15 05:09:35;;;;;;;;;1.00;0.00;;;;;10.45;100.00;100453.72;5081911;28;45460;-78
2023/01/15 05:12:00;;;;;;;;;0.00;0.00;;;;;10.58;100.00;100453.38;5074465;28;46484;-78
2023/01/15 05:14:26;;;;;;;;;0.00;0.00;;;;;10.63;100.00;100470.03;5069616;28;45298;-78
2023/01/15 05:16:51;;;;;;;;;2.00;0.00;;;;;10.54;100.00;100479.97;5075136;27;45346;-78
2023/01/15 05:19:17;;;;;;;;;0.00;0.00;;;;;10.77;100.00;100480.34;5085386;27;45251;-78
2023/01/15 05:21:43;;;;;;;;;0.00;0.00;;;;;10.51;100.00;100480.28;5087685;27;47085;-78
2023/01/15 05:24:13;;;;;;;;;1.00;0.00;;;;;10.45;100.00;100480.03;5085095;28;45481;-78
2023/01/15 05:26:38;;;;;;;;;0.00;0.00;;;;;10.78;100.00;100471.19;5082480;28;45369;-79
2023/01/15 05:29:04;;;;;;;;;0.33;0.00;;;;;10.55;100.00;100467.25;5085325;27;45385;-79
2023/01/15 05:31:30;;;;;;;;;0.00;0.00;;;;;10.46;100.00;100476.31;5083960;28;45458;-78
2023/01/15 05:33:56;;;;;;;;;0.00;0.00;;;;;10.13;100.00;100481.38;5085049;27;45397;-79
2023/01/15 05:36:31;;;;;;;;;1.00;0.00;;;;;10.31;100.00;100466.97;5075877;27;45428;-78
2023/01/15 05:39:00;;;;;;;;;4.33;0.00;;;;;10.37;100.00;100486.25;5084726;27;46227;-78
2023/01/15 05:44:11;;;;;;;;;0.00;0.00;;;;;10.50;100.00;100489.44;5079354;28;45383;-77
2023/01/15 05:46:38;;;;;;;;;2.00;1.00;;;;;10.50;100.00;100489.44;5080353;28;45441;-78
2023/01/15 05:49:06;;;;;;;;;0.00;0.00;;;;;10.36;100.00;100492.69;5078464;27;45428;-77
2023/01/15 05:51:36;;;;;;;;;0.00;0.00;;;;;10.39;100.00;100492.38;5079066;28;46596;-78
2023/01/15 05:54:03;;;;;;;;;0.00;0.00;;;;;10.61;100.00;100499.22;5076841;28;45368;-77
2023/01/15 05:56:28;;;;;;;;;0.00;0.00;;;;;10.73;100.00;100495.28;5079886;28;45412;-78
2023/01/15 05:58:54;;;;;;;;;0.00;0.00;;;;;10.34;100.00;100500.13;5084317;27;45312;-78
2023/01/15 06:01:20;;;;;;;;;0.33;0.00;;;;;10.24;100.00;100510.19;5078931;28;46378;-78
2023/01/15 06:03:47;;;;;;;;;0.00;0.00;;;;;10.36;100.00;100509.00;5075963;27;45253;-77
2023/01/15 06:06:14;;;;;;;;;0.00;0.00;;;;;10.45;100.00;100509.91;5080803;28;45422;-77
2023/01/15 06:08:39;;;;;;;;;0.67;0.00;;;;;10.59;100.00;100503.97;5084051;27;45401;-78
2023/01/15 06:11:06;;;;;;;;;0.00;0.00;;;;;10.75;100.00;100527.72;5081786;28;47044;-78
2023/01/15 06:13:31;;;;;;;;;0.00;0.00;;;;;10.64;100.00;100528.81;5081357;28;45379;-79
2023/01/15 06:15:58;;;;;;;;;0.00;0.00;;;;;10.60;100.00;100532.81;5078595;27;45531;-78
2023/01/15 06:18:24;;;;;;;;;2.00;2.00;;;;;10.74;100.00;100542.34;5084090;27;45381;-78
2023/01/15 06:20:49;;;;;;;;;0.67;0.00;;;;;10.66;100.00;100537.66;5081277;28;46815;-78
2023/01/15 06:23:16;;;;;;;;;1.33;0.00;;;;;10.59;100.00;100533.84;5082142;27;45701;-78
2023/01/15 06:25:42;;;;;;;;;0.00;0.00;;;;;10.68;100.00;100529.34;5083389;28;45222;-78
2023/01/15 06:28:07;;;;;;;;;0.67;0.00;;;;;10.56;100.00;100534.16;5084765;27;45223;-78
2023/01/15 06:30:34;;;;;;;;;0.00;0.00;;;;;10.62;100.00;100528.09;5082250;27;45523;-78
2023/01/15 06:32:59;;;;;;;;;0.00;0.00;;;;;10.60;100.00;100549.13;5097451;27;46006;-78
2023/01/15 06:35:25;;;;;;;;;0.00;0.00;;;;;10.51;100.00;100556.34;5075266;28;45310;-77
2023/01/15 06:37:51;;;;;;;;;1.00;0.00;;;;;10.57;100.00;100554.88;5081555;27;45361;-78
2023/01/15 06:40:16;;;;;;;;;0.00;0.00;;;;;10.55;100.00;100565.03;5074057;28;47131;-78
2023/01/15 06:48:15;;;;;;;;;1.00;0.00;;;;;10.67;100.00;100580.09;5080137;28;46252;-78
2023/01/15 06:50:41;;;;;;;;;0.00;0.00;;;;;10.50;100.00;100570.09;5072271;28;47156;-77
2023/01/15 06:53:06;;;;;;;;;0.00;0.00;;;;;10.13;100.00;100587.25;5073363;28;45380;-78
2023/01/15 06:55:31;;;;;;;;;1.67;0.00;;;;;10.22;100.00;100599.09;5073702;27;45499;-77
2023/01/15 06:57:57;;;;;;;;;1.33;1.00;;;;;10.15;100.00;100609.66;5081002;28;45415;-77
2023/01/15 07:00:22;;;;;;;;;3.00;0.00;;;;;9.77;100.00;100590.81;5081783;27;45634;-77
2023/01/15 07:02:48;;;;;;;;;0.33;0.00;;;;;10.01;100.00;100609.28;5077454;27;45353;-77
2023/01/15 07:05:14;;;;;;;;;2.67;1.00;;;;;10.08;100.00;100608.53;5071624;28;45411;-77
2023/01/15 07:07:39;;;;;;;;;0.00;0.00;;;;;10.15;100.00;100609.66;5077464;28;45630;-77
2023/01/15 07:10:05;;;;;;;;;0.00;0.00;;;;;9.95;100.00;100623.44;5073070;27;46551;-77
2023/01/15 07:12:33;;;;;;;;;1.00;0.00;;;;;10.08;100.00;100619.38;5071151;28;45617;-78
2023/01/15 07:14:58;;;;;;;;;0.00;0.00;;;;;9.90;100.00;100610.31;5072314;27;45314;-77
2023/01/15 07:17:23;;;;;;;;;0.00;0.00;;;;;9.93;100.00;100609.19;5076675;28;45470;-77
2023/01/15 07:19:49;;;;;;;;;0.00;0.00;;;;;9.98;100.00;100621.31;5079504;28;47269;-78
2023/01/15 07:22:14;;;;;;;;;2.00;0.00;;;;;9.89;100.00;100627.59;5086549;27;45511;-77
2023/01/15 07:24:40;;;;;;;;;0.00;0.00;;;;;9.76;100.00;100636.06;5081679;27;45731;-77
2023/01/15 07:27:05;;;;;;;;;0.67;0.00;;;;;9.59;100.00;100633.22;5098584;27;45444;-78
2023/01/15 07:29:30;;;;;;;;;0.00;0.00;;;;;9.52;100.00;100651.09;5074037;27;47886;-78
2023/01/15 07:31:56;;;;;;;;;0.00;0.00;;;;;9.68;100.00;100663.06;5077855;27;47085;-77
2023/01/15 07:34:21;;;;;;;;;1.67;0.00;;;;;9.78;100.00;100657.63;5101749;27;45393;-78
2023/01/15 07:36:47;;;;;;;;;0.00;0.00;;;;;9.68;100.00;100657.63;5096535;27;45380;-78
2023/01/15 07:39:12;;;;;;;;;0.00;0.00;;;;;9.85;100.00;100653.34;5099927;27;46301;-78
2023/01/15 07:50:07;;;;;;;;;0.00;0.00;;;;;9.99;100.00;100630.31;5089340;27;45398;-76
2023/01/15 07:52:32;;;;;;;;;0.00;0.00;;;;;9.81;100.00;100632.91;5084921;27;45467;-76
2023/01/15 07:54:57;;;;;;;;;1.00;1.00;;;;;10.07;100.00;100638.56;5074134;27;45322;-77
2023/01/15 07:57:23;;;;;;;;;3.00;0.00;;;;;9.64;100.00;100641.81;5095811;27;45398;-77
2023/01/15 07:59:49;;;;;;;;;0.00;0.00;;;;;9.85;100.00;100642.47;5099274;27;46670;-77
2023/01/15 08:02:15;;;;;;;;;2.00;0.00;;;;;9.89;100.00;100649.31;5100283;27;45402;-77
2023/01/15 08:04:40;;;;;;;;;0.00;0.00;;;;;10.46;100.00;100639.28;5084853;27;45302;-76
2023/01/15 08:07:07;;;;;;;;;0.00;0.00;;;;;10.48;100.00;100648.13;5093109;27;45498;-77
2023/01/15 08:09:32;;;;;;;;;2.00;1.67;;;;;10.63;100.00;100634.91;5098252;27;46568;-77
2023/01/15 08:17:26;;;;;;;;;0.00;0.00;;;;;10.71;100.00;100654.03;5102942;27;45408;-76
2023/01/15 08:19:52;;;;;;;;;0.33;0.00;;;;;10.79;100.00;100652.28;5083016;27;46961;-76
2023/01/15 08:22:17;;;;;;;;;0.00;0.00;;;;;10.76;100.00;100652.56;5079919;27;45519;-77
2023/01/15 08:24:42;;;;;;;;;0.00;0.00;;;;;10.69;100.00;100651.47;5092529;27;45201;-77
2023/01/15 08:27:08;;;;;;;;;0.00;0.00;;;;;10.87;100.00;100646.94;5100529;27;45313;-77
2023/01/15 08:29:33;;;;;;;;;0.00;0.00;;;;;10.54;100.00;100652.97;5098373;27;46056;-78
2023/01/15 08:31:58;;;;;;;;;0.00;0.00;;;;;10.71;100.00;100648.59;5099384;27;45302;-78
2023/01/15 08:34:24;;;;;;;;;2.00;1.00;;;;;10.71;100.00;100651.31;5082761;27;45300;-78
2023/01/15 08:36:55;;;;;;;;;0.00;0.00;;;;;10.45;100.00;100653.84;5102475;27;45406;-78
2023/01/15 08:39:21;;;;;;;;;2.00;0.00;;;;;10.51;100.00;100647.84;5095305;27;45480;-78
2023/01/15 08:41:47;;;;;;;;;0.00;0.00;;;;;10.64;100.00;100640.19;5083450;27;45266;-80
2023/01/15 08:44:12;;;;;;;;;0.00;0.00;;;;;10.78;100.00;100655.13;5094735;27;45157;-78
2023/01/15 08:46:37;;;;;;;;;0.00;0.00;;;;;10.54;100.00;100650.25;5100283;27;45228;-78
2023/01/15 08:49:02;;;;;;;;;1.00;1.00;;;;;10.72;100.00;100650.31;5096054;27;45433;-77
2023/01/15 08:51:28;;;;;;;;;0.00;0.00;;;;;10.67;100.00;100644.47;5082225;27;45559;-78
2023/01/15 08:53:53;;;;;;;;;0.00;0.00;;;;;10.88;100.00;100640.47;5098022;27;45818;-78
2023/01/15 08:56:19;;;;;;;;;0.67;0.67;;;;;10.96;100.00;100652.47;5084135;27;45502;-78
2023/01/15 08:58:45;;;;;;;;;0.00;0.00;;;;;10.99;100.00;100633.09;5099300;27;45477;-78
2023/01/15 09:01:14;;;;;;;;;1.00;1.00;;;;;10.70;100.00;100641.44;5103537;27;46448;-77
2023/01/15 09:03:41;;;;;;;;;0.00;0.00;;;;;10.93;100.00;100630.00;5100781;27;45468;-78
2023/01/15 09:06:06;;;;;;;;;0.67;0.67;;;;;11.14;100.00;100617.97;5077546;27;46082;-78
2023/01/15 09:08:31;;;;;;;;;2.67;0.00;;;;;10.90;100.00;100621.28;5074631;27;46505;-78
2023/01/15 09:11:03;;;;;;;;;5.33;1.33;;;;;11.11;100.00;100630.00;5082333;27;45404;-78
2023/01/15 09:13:29;;;;;;;;;4.00;1.00;;;;;11.21;100.00;100647.09;5083513;28;45295;-80
2023/01/15 09:16:03;;;;;;;;;1.67;1.00;;;;;11.21;100.00;100638.09;5082023;27;45534;-78
2023/01/15 09:18:29;;;;;;;;;2.67;1.00;;;;;11.14;100.00;100643.31;5077408;27;46876;-78
2023/01/15 09:20:54;;;;;;;;;6.67;2.00;;;;;11.21;100.00;100641.66;5081630;27;45695;-76
2023/01/15 09:23:20;;;;;;;;;0.00;0.00;;;;;11.08;100.00;100640.34;5097603;27;45688;-79
2023/01/15 09:25:53;;;;;;;;;1.00;0.67;;;;;11.23;100.00;100633.38;5082060;27;45523;-76
2023/01/15 09:28:19;;;;;;;;;0.33;0.33;;;;;11.39;100.00;100647.13;5100520;27;45367;-77
2023/01/15 09:30:45;;;;;;;;;2.00;1.00;;;;;11.52;100.00;100633.13;5103670;27;45357;-77
2023/01/15 09:33:11;;;;;;;;;0.00;0.00;;;;;11.53;100.00;100641.13;5101881;27;45569;-76
2023/01/15 09:35:36;;;;;;;;;0.00;0.00;;;;;10.98;100.00;100639.56;5094737;27;45274;-78
2023/01/15 09:38:02;;;;;;;;;1.00;0.00;;;;;11.33;100.00;100653.16;5093762;27;46455;-76
2023/01/15 09:40:51;;;;;;;;;0.00;0.00;;;;;11.38;100.00;100637.25;5084745;27;46560;-78
2023/01/15 09:43:39;;;;;;;;;1.00;1.00;;;;;11.07;100.00;100631.34;5095718;27;45514;-77
2023/01/15 09:46:34;;;;;;;;;1.67;1.00;;;;;10.85;100.00;100648.94;5104842;27;45489;-78
2023/01/15 09:49:17;;;;;;;;;0.33;0.33;;;;;11.23;100.00;100638.81;5096650;27;45680;-78
2023/01/15 09:51:56;;;;;;;;;2.33;1.00;;;;;11.07;100.00;100652.22;5105070;27;45417;-78
2023/01/15 09:54:40;;;;;;;;;0.00;0.00;;;;;11.06;100.00;100667.69;5103455;27;45294;-78
2023/01/15 09:57:12;;;;;;;;;2.33;0.00;;;;;11.25;100.00;100658.56;5099933;27;45235;-77
2023/01/15 09:59:43;;;;;;;;;1.00;1.00;;;;;11.23;100.00;100660.56;5079311;27;46471;-77
2023/01/15 10:02:30;;;;;;;;;2.00;1.00;;;;;11.16;100.00;100678.50;5085700;27;45710;-80
2023/01/15 10:05:10;;;;;;;;;1.00;0.00;;;;;10.98;100.00;100664.88;5101722;27;45501;-77
2023/01/15 10:07:43;;;;;;;;;0.00;0.00;;;;;11.03;100.00;100678.03;5095491;27;45384;-77
2023/01/15 10:10:16;;;;;;;;;3.33;1.33;;;;;11.19;100.00;100670.03;5068722;27;47122;-77
2023/01/15 10:12:44;;;;;;;;;1.00;1.00;;;;;11.27;100.00;100664.66;5085324;27;45411;-76
2023/01/15 10:15:13;;;;;;;;;0.33;0.33;;;;;11.44;100.00;100658.38;5072869;28;45366;-77
2023/01/15 10:17:44;;;;;;;;;2.00;0.00;;;;;11.52;100.00;100661.19;5077451;27;45529;-77
2023/01/15 10:20:26;;;;;;;;;1.00;0.00;;;;;11.39;100.00;100668.03;5079882;27;48515;-77
2023/01/15 10:23:06;;;;;;;;;0.00;0.00;;;;;11.73;100.00;100671.72;5097242;27;45319;-76
2023/01/15 10:26:09;;;;;;;;;1.33;1.00;;;;;11.67;100.00;100656.88;5096510;27;45324;-76
2023/01/15 10:28:58;;;;;;;;;2.00;1.00;;;;;11.89;100.00;100660.16;5095679;27;45461;-77
2023/01/15 10:31:36;;;;;;;;;0.00;0.00;;;;;11.92;100.00;100663.38;5079062;27;47171;-77
2023/01/15 10:34:20;;;;;;;;;1.67;1.00;;;;;11.51;100.00;100653.16;5103596;27;45520;-77
2023/01/15 10:36:56;;;;;;;;;0.00;0.00;;;;;11.44;100.00;100662.97;5080563;27;46121;-76
2023/01/15 10:39:40;;;;;;;;;3.67;3.00;;;;;11.76;100.00;100662.44;5082419;27;45665;-76
2023/01/15 10:42:30;;;;;;;;;2.67;1.33;;;;;11.95;100.00;100659.50;5081979;27;47982;-78
2023/01/15 10:45:11;;;;;;;;;2.00;1.00;;;;;11.92;100.00;100673.41;5079240;27;45275;-78
2023/01/15 10:47:39;;;;;;;;;0.00;0.00;;;;;12.13;100.00;100662.19;5077826;27;45417;-77
2023/01/15 10:50:16;;;;;;;;;2.33;1.00;;;;;12.09;100.00;100675.25;5084981;27;45247;-77
2023/01/15 10:52:46;;;;;;;;;0.00;0.00;;;;;12.12;100.00;100680.41;5098050;27;45329;-77
2023/01/15 10:55:20;;;;;;;;;1.00;1.00;;;;;12.38;100.00;100686.69;5100340;27;45691;-77
2023/01/15 10:57:58;;;;;;;;;0.00;0.00;;;;;12.01;100.00;100675.19;5079116;27;46038;-76
2023/01/15 11:00:25;;;;;;;;;8.67;7.67;;;;;11.99;100.00;100669.06;5081409;27;45623;-80
2023/01/15 11:03:06;;;;;;;;;2.00;0.67;;;;;11.79;100.00;100678.44;5077098;27;47799;-78
2023/01/15 11:05:34;;;;;;;;;1.00;0.00;;;;;12.11;100.00;100675.97;5098449;27;45392;-76
2023/01/15 11:08:04;;;;;;;;;0.00;0.00;;;;;12.39;100.00;100668.47;5081305;27;45347;-77
2023/01/15 11:10:31;;;;;;;;;0.33;0.00;;;;;12.67;100.00;100660.94;5096371;27;45791;-77
2023/01/15 11:21:24;;;;;;;;;1.67;1.00;;;;;12.65;100.00;100655.63;5102585;27;45427;-77
2023/01/15 11:23:51;;;;;;;;;3.00;1.33;;;;;12.69;100.00;100637.94;5098679;27;45658;-77
2023/01/15 11:26:27;;;;;;;;;3.00;2.00;;;;;12.61;100.00;100640.63;5080731;27;45357;-77
2023/01/15 11:28:54;;;;;;;;;2.33;1.33;;;;;12.43;100.00;100653.47;5079381;27;45692;-76
2023/01/15 11:31:20;;;;;;;;;1.00;0.00;;;;;12.52;100.00;100646.22;5100046;27;45571;-76
2023/01/15 11:34:03;;;;;;;;;1.67;1.67;;;;;12.47;100.00;100653.00;5099658;27;45384;-77
2023/01/15 11:36:30;;;;;;;;;2.67;0.00;;;;;12.52;100.00;100651.66;5081165;27;45897;-76
2023/01/15 11:38:56;;;;;;;;;0.00;0.00;;;;;12.30;100.00;100653.09;5099062;27;45406;-78
2023/01/15 11:52:42;;;;;;;;;2.00;2.00;;;;;12.55;100.00;100644.03;5097206;27;45710;-79
2023/01/15 11:55:18;;;;;;;;;1.00;1.00;;;;;12.55;100.00;100638.56;5095871;27;46383;-77
2023/01/15 11:57:44;;;;;;;;;3.00;1.00;;;;;12.80;100.00;100613.09;5080287;27;45699;-77
2023/01/15 12:00:44;;;;;;;;;0.00;0.00;;;;;12.81;100.00;100628.44;5096844;27;45367;-78
2023/01/15 12:03:18;;;;;;;;;1.00;1.00;;;;;13.02;100.00;100617.06;5066858;27;45541;-79
2023/01/15 12:05:57;;;;;;;;;1.33;0.00;;;;;13.13;100.00;100611.34;5100150;27;45472;-78
2023/01/15 12:08:36;;;;;;;;;2.00;1.00;;;;;12.93;100.00;100623.50;5099284;27;45539;-78
2023/01/15 12:11:05;;;;;;;;;3.33;1.00;;;;;12.86;100.00;100603.38;5081251;27;45492;-76
2023/01/15 12:13:57;;;;;;;;;1.00;1.00;;;;;12.63;100.00;100602.31;5075938;27;45512;-76
2023/01/15 12:16:44;;;;;;;;;2.33;2.00;;;;;12.28;100.00;100587.84;5074353;27;45798;-79
2023/01/15 12:19:12;;;;;;;;;2.67;1.67;;;;;12.81;100.00;100594.88;5101211;27;45416;-75